Altoona, KS

9:53 PM CST on February 13, 2016 (GMT -0600)
Chanute Martin Johnson | | Change Station
CLOSE
Current Station
Airport
Location: Chanute,
Elevation: 1001 ft
Nearby Weather Stations

Elev 1001 ft 37.67 °N, 95.48 °W | Updated 1 hour ago

Overcast
Overcast
30 °F
Feels Like 21 °F
N
10
Wind Variable Wind from East

Today
High -- | Low -- °F
--% Chance of Precip.
Yesterday
High -- | Low -- °F
Precip. -- in
Pressure 30.22 in
Visibility 10.0 miles
Clouds Overcast 5500 ft
Windchill 21 °F
Dew Point 7 °F
Humidity 38%
Rainfall 0.00 in
Snow Depth Not available.
7:14 AM 5:59 PM
Waxing Crescent, 37% visible
METAR KCNU 140252Z AUTO 08009KT 10SM OVC055 M01/M14 A3019 RMK AO2 SLP231 T10111139 58009
Pressure 30.22 in
Visibility 10.0 miles
Clouds Overcast 5500 ft
Windchill 21 °F
Dew Point 7 °F
Humidity 38%
Rainfall 0.00 in
Snow Depth Not available.
7:14 AM 5:59 PM
Waxing Crescent, 37% visible
METAR KCNU 140252Z AUTO 08009KT 10SM OVC055 M01/M14 A3019 RMK AO2 SLP231 T10111139 58009

10-Day Weather Forecast

Almanac

Astronomy

Feb. 13, 2016 Rise Set
Actual Time
Civil Twilight
Nautical Twilight
Astronomical Twilight
Moon
Length of Visible Light
Length of Day
Tomorrow will be .
, % of the Moon is Illuminated

Today's Extremes

State Highs State Lows

Community

WunderPhotos

Upload Photos

1,892,738 photos uploaded!

WunderBlog® & News

Nearby

Air Quality

  Air Quality AQ Index Pollutant
Not available.

Snow Depth

Station Depth Elevation

Earthquake Activity

City Distance Mag. Time & Date
Minimum magnitude displayed is 2.5.

Coastal Water Temperatures

Place Temperature

Stations

Nearby Weather Stations

Station Location Temp. Windchill Dew Point Humidity Wind Precip. Elev Updated Type
                   

Watches & Warnings

There are currently no watches in effect.